EGNO

Warton Airport

Warton, United Kingdom
METAR EGNO 251620Z 05006KT 9999 -RA FEW016 SCT019 BKN049 15/14 Q1020
Observed Flight Rules
May-25 @ 16:20 UTC (6 hours ago) Visual Flight Rules
Wind Visibility Clouds Conditions
50° at 6 knots 10,000+ meters
  • Few at 1,600' AGL
  • Scattered at 1,900' AGL
  • Broken at 4,900' AGL
  • Light Rain
Temperatures Readings
Current 15°C / 59°F
Dewpoint 14°C / 57°F
Humidity 94%
Altimeter 30.12" Hg
Pressure 1020 hPa
Elevation 17
METAR EGNO 251620Z 05006KT 9999 -RA FEW016 SCT019 BKN049 15/14 Q1020
Observed Flight Rules
May-25 @ 16:20 UTC
(6 hours ago)
VFR
Wind Visibility
50° at 6 knots 10,000+ meters
Clouds
  • Few at 1,600' AGL
  • Scattered at 1,900' AGL
  • Broken at 4,900' AGL
Conditions
  • Light Rain
Temperature Dewpoint
15°C / 59°F 14°C / 57°F
Humidity Altimeter Pressure
94% 30.12" Hg 1020 hPa